createdAt,value
2023-01-29T00:08:06.044Z,79.45
2023-01-29T00:16:28.908Z,79.43
2023-01-29T00:24:51.854Z,79.42
2023-01-29T00:33:14.825Z,79.43
2023-01-29T00:41:57.355Z,79.17
2023-01-29T00:50:20.298Z,79.15
2023-01-29T00:58:43.249Z,79.25
2023-01-29T01:07:06.570Z,79.08
2023-01-29T01:15:36.797Z,78.93
2023-01-29T01:23:59.837Z,79.12
2023-01-29T01:32:24.118Z,78.95
2023-01-29T01:40:46.952Z,78.77
2023-01-29T01:49:19.055Z,78.75
2023-01-29T01:57:47.142Z,78.68
2023-01-29T02:06:29.904Z,78.65
2023-01-29T02:14:52.791Z,78.82
2023-01-29T02:23:37.569Z,78.77
2023-01-29T02:32:35.386Z,78.68
2023-01-29T02:41:01.020Z,78.56
2023-01-29T02:49:46.618Z,78.70
2023-01-29T02:58:33.990Z,78.70
2023-01-29T03:07:07.725Z,78.67
2023-01-29T03:15:42.362Z,78.69
2023-01-29T03:25:16.613Z,78.75
2023-01-29T03:34:05.414Z,78.34
2023-01-29T03:42:50.992Z,78.55
2023-01-29T03:51:26.371Z,78.57
2023-01-29T04:00:17.050Z,78.46
2023-01-29T04:09:13.787Z,78.43
2023-01-29T04:17:43.590Z,78.43
2023-01-29T04:26:31.685Z,78.39
2023-01-29T04:35:24.121Z,78.40
2023-01-29T04:44:29.773Z,78.42
2023-01-29T04:53:01.552Z,78.36
2023-01-29T05:01:30.509Z,78.39
2023-01-29T05:09:53.579Z,78.24
2023-01-29T05:18:17.500Z,78.32
2023-01-29T05:27:02.514Z,78.15
2023-01-29T05:35:26.107Z,78.08
2023-01-29T05:43:52.134Z,78.30
2023-01-29T05:52:15.684Z,78.37
2023-01-29T06:00:42.271Z,78.17
2023-01-29T06:09:05.045Z,78.22
2023-01-29T06:17:27.847Z,78.21
2023-01-29T06:25:50.631Z,78.35
2023-01-29T06:34:13.465Z,78.38
2023-01-29T06:42:36.418Z,78.44
2023-01-29T06:51:07.879Z,78.41
2023-01-29T06:59:30.800Z,78.36
2023-01-29T07:07:54.123Z,78.32
2023-01-29T07:16:17.078Z,78.39
2023-01-29T07:24:39.900Z,78.54
2023-01-29T07:33:08.296Z,78.40
2023-01-29T07:41:31.167Z,78.39
2023-01-29T07:49:56.456Z,78.27
2023-01-29T07:58:20.060Z,78.54
2023-01-29T08:06:42.867Z,78.41
2023-01-29T08:15:06.075Z,78.52
2023-01-29T08:23:29.601Z,78.49
2023-01-29T08:31:54.308Z,78.61
2023-01-29T08:40:17.416Z,78.62
2023-01-29T08:48:45.390Z,78.46
2023-01-29T08:57:08.298Z,78.50
2023-01-29T09:05:31.164Z,78.71
2023-01-29T09:13:53.937Z,78.56
2023-01-29T09:22:16.761Z,78.53
2023-01-29T09:30:40.262Z,78.52
2023-01-29T09:39:03.893Z,78.51
2023-01-29T09:47:30.434Z,78.61
2023-01-29T09:56:01.955Z,78.75
2023-01-29T10:04:49.751Z,78.67
2023-01-29T10:13:24.618Z,78.51
2023-01-29T10:21:53.025Z,78.59
2023-01-29T10:30:31.088Z,78.41
2023-01-29T10:38:53.880Z,78.59
2023-01-29T10:47:22.746Z,78.66
2023-01-29T10:56:10.766Z,78.76
2023-01-29T11:04:42.064Z,78.79
2023-01-29T11:13:07.153Z,78.69
2023-01-29T11:21:30.581Z,78.47
2023-01-29T11:29:54.358Z,78.43
2023-01-29T11:38:18.839Z,78.35
2023-01-29T11:46:41.746Z,78.57
2023-01-29T11:55:24.903Z,78.27
2023-01-29T12:03:54.886Z,78.49
2023-01-29T12:12:37.554Z,78.27
2023-01-29T12:21:05.160Z,78.14
2023-01-29T12:29:46.520Z,78.23
2023-01-29T12:38:20.373Z,78.14
2023-01-29T12:46:53.320Z,78.16
2023-01-29T12:55:22.193Z,78.32
2023-01-29T13:04:24.367Z,78.37
2023-01-29T13:13:13.479Z,78.30
2023-01-29T13:21:44.003Z,78.22
2023-01-29T13:30:08.125Z,78.06
2023-01-29T13:38:42.385Z,78.10
2023-01-29T13:47:20.767Z,78.11
2023-01-29T13:55:43.696Z,78.04
2023-01-29T14:04:18.864Z,78.14
2023-01-29T14:13:05.188Z,78.14
2023-01-29T14:21:36.092Z,78.17
2023-01-29T14:30:13.746Z,78.19
2023-01-29T14:38:37.499Z,78.21
2023-01-29T14:47:00.363Z,78.11
2023-01-29T14:55:42.098Z,77.95
2023-01-29T15:04:19.032Z,78.09
2023-01-29T15:12:47.768Z,77.91
2023-01-29T15:21:16.197Z,78.14
2023-01-29T15:29:40.057Z,77.99
2023-01-29T15:38:14.827Z,78.01
2023-01-29T15:46:41.747Z,78.38
2023-01-29T15:55:07.219Z,78.33
2023-01-29T16:03:33.719Z,78.38
2023-01-29T16:11:59.060Z,78.35
2023-01-29T16:20:45.729Z,78.48
2023-01-29T16:29:12.347Z,78.30
2023-01-29T16:37:38.971Z,78.43
2023-01-29T16:46:15.891Z,78.25
2023-01-29T16:54:42.793Z,78.59
2023-01-29T17:03:07.704Z,78.52
2023-01-29T17:11:33.344Z,78.35
2023-01-29T17:19:57.249Z,78.53
2023-01-29T17:28:20.372Z,78.67
2023-01-29T17:36:44.282Z,78.58
2023-01-29T17:45:08.209Z,78.66
2023-01-29T17:53:44.777Z,78.72
2023-01-29T18:02:08.734Z,78.75
2023-01-29T18:10:51.378Z,78.70
2023-01-29T18:19:23.044Z,78.65
2023-01-29T18:27:45.933Z,78.78
2023-01-29T18:36:08.839Z,78.93
2023-01-29T18:44:31.720Z,78.93
2023-01-29T18:52:56.563Z,78.95
2023-01-29T19:01:19.982Z,78.86
2023-01-29T19:09:45.673Z,78.94
2023-01-29T19:18:12.052Z,78.90
2023-01-29T19:26:36.723Z,78.97
2023-01-29T19:34:59.672Z,79.02
2023-01-29T19:43:22.573Z,79.06
2023-01-29T19:51:45.721Z,79.19
2023-01-29T20:00:10.907Z,79.23
2023-01-29T20:08:34.867Z,79.13
2023-01-29T20:16:57.790Z,79.42
2023-01-29T20:25:20.576Z,79.32
2023-01-29T20:33:44.328Z,79.25
2023-01-29T20:42:07.168Z,79.41
2023-01-29T20:50:30.001Z,79.24
2023-01-29T20:58:52.759Z,79.23
2023-01-29T21:07:16.270Z,79.33
2023-01-29T21:15:39.156Z,79.36
2023-01-29T21:24:02.010Z,79.26
2023-01-29T21:32:24.878Z,79.56
2023-01-29T21:40:47.657Z,79.48
2023-01-29T21:49:10.528Z,79.57
2023-01-29T21:57:33.524Z,79.49
2023-01-29T22:05:56.393Z,79.44
2023-01-29T22:14:19.646Z,79.52
2023-01-29T22:22:42.528Z,79.63
2023-01-29T22:31:05.547Z,79.46
2023-01-29T22:39:28.531Z,79.69
2023-01-29T22:47:51.375Z,79.62
2023-01-29T22:56:14.689Z,79.70
2023-01-29T23:04:41.201Z,79.77
2023-01-29T23:13:07.247Z,79.49
2023-01-29T23:21:30.105Z,79.76
2023-01-29T23:29:52.879Z,79.64
2023-01-29T23:38:15.663Z,79.73
2023-01-29T23:46:38.773Z,79.56
2023-01-29T23:55:01.619Z,79.77
